This is the latest recevied weather packets stored in our database for station/object KE8ZLU. If no packets are shown the sender has not sent any weather packets the latest 1 day(s).
| Time | Temp. | Humidity | Pressure | Rain* | Wind** | Luminosity | Snow |
|---|---|---|---|---|---|---|---|
| 1778013860 | 11.67° C | 52% | 1009.4 hPa | 0 mm | 0.89 m/s, 253° | 139 W/m² | - |
| 1778013557 | 11.67° C | 50% | 1009.7 hPa | 0 mm | 3.13 m/s, 217° | 137 W/m² | - |
| 1778013253 | 11.11° C | 50% | 1009.6 hPa | 0 mm | 3.13 m/s, 277° | 134 W/m² | - |
| 1778012950 | 11.11° C | 48% | 1009.5 hPa | 0 mm | 4.47 m/s, 266° | 123 W/m² | - |
| 1778012646 | 11.67° C | 51% | 1009.5 hPa | 0 mm | 3.58 m/s, 255° | 120 W/m² | - |
| 1778012343 | 11.67° C | 50% | 1009.5 hPa | 0 mm | 2.68 m/s, 256° | 171 W/m² | - |
| 1778012040 | 11.67° C | 53% | 1009.6 hPa | 0 mm | 0.89 m/s, 297° | 167 W/m² | - |
| 1778011738 | 11.67° C | 51% | 1009.5 hPa | 0 mm | 2.68 m/s, 254° | 177 W/m² | - |
| 1778011434 | 11.11° C | 52% | 1009.4 hPa | 0 mm | 2.24 m/s, 267° | 229 W/m² | - |
| 1778011130 | 11.11° C | 52% | 1009.4 hPa | 0 mm | 1.79 m/s, 285° | 145 W/m² | - |
| 1778010828 | 11.11° C | 54% | 1009.4 hPa | 0 mm | 1.79 m/s, 295° | 111 W/m² | - |
| 1778010524 | 11.11° C | 53% | 1009.5 hPa | 0 mm | 3.13 m/s, 295° | 100 W/m² | - |
| 1778010222 | 11.11° C | 53% | 1009.4 hPa | 0 mm | 1.79 m/s, 231° | 96 W/m² | - |
| 1778009917 | 11.11° C | 54% | 1009.4 hPa | 0 mm | 2.68 m/s, 270° | 96 W/m² | - |
| 1778009615 | 11.11° C | 53% | 1009.6 hPa | 0 mm | 3.58 m/s, 255° | 112 W/m² | - |
| 1778009313 | 11.11° C | 53% | 1009.6 hPa | 0 mm | 3.58 m/s, 284° | 91 W/m² | - |
| 1778009011 | 11.11° C | 57% | 1009.4 hPa | 0 mm | 1.79 m/s, 266° | 98 W/m² | - |
| 1778008708 | 11.67° C | 58% | 1009.5 hPa | 0 mm | 3.13 m/s, 270° | 131 W/m² | - |
| 1778008407 | 11.67° C | 57% | 1009.4 hPa | 0 mm | 3.13 m/s, 276° | 121 W/m² | - |
| 1778008103 | 11.67° C | 59% | 1009.4 hPa | 0 mm | 4.02 m/s, 298° | 143 W/m² | - |
| 1778007799 | 11.67° C | 62% | 1009.4 hPa | 0 mm | 1.34 m/s, 278° | 166 W/m² | - |
| 1778007494 | 11.67° C | 60% | 1009.4 hPa | 0 mm | 2.68 m/s, 294° | 236 W/m² | - |
| 1778007191 | 11.67° C | 58% | 1009.4 hPa | 0 mm | 4.47 m/s, 290° | 197 W/m² | - |
| 1778006887 | 11.67° C | 63% | 1009.4 hPa | 0 mm | 2.68 m/s, 291° | 195 W/m² | - |
| 1778006584 | 11.67° C | 65% | 1009.5 hPa | 0 mm | 2.68 m/s, 278° | 215 W/m² | - |
* Rain latest hour (hover to see other rain measurements)
** Current wind speed in m/s (hover to see current wind gust speed)